Memorial Field Hot Springs US
ICAO: KHOT
IATA: HOT
Category: Medium
Scheduled Services: Yes

Elevation: 540 ft
TransAlt. 18000 ft.

Airport Communications:
MEMPHIS CNTR:127.825
ASOS:119.925
JONESBORO RDO:110
CTAF/UNICOM:123

KHOT Zoom In..

Runways:

(A) RW 05 length 6595 ft width 150 ft
ILS 111.50 / hdg 50

(B) RW 13 length 4098 ft width 100 ft
---- / hdg 130

(C) RW 23 length 6595 ft width 150 ft
---- / hdg 230

(D) RW 31 length 4098 ft width 100 ft
---- / hdg 310

Location; KHOT
Day. 19 / Time. 02.53 Zulu
* Altimeter: 29.92
* Temperature: 28° c. 82.4°f.
* Wind from: 090° Speed 04 kn.
Dewpoint: 26° c.
Visibility: 10 Statute Miles.
Clouds: Clear (automated report).

KHOT 190253Z AUTO 09004KT 10SM CLR 28/26 A2992 RMK AO2 SLP123 T02780256 53006


Wind From 090°
Speed 04 kn.

 
 
jpsmedia.com for Web Design worldairports.se 2018   terms of use